Time;durP1;ratioP1;P1;durP2;ratioP2;P2;SDS_P1;SDS_P2;PMS_P1;PMS_P2;Temp;Humidity;BMP_temperature;BMP_pressure;BME280_temperature;BME280_humidity;BME280_pressure;Samples;Min_cycle;Max_cycle;Signal;HPM_P1;HPM_P2
2022/08/05 00:02:24;;;;;;;3.80;1.23;;;19.10;99.90;;;;;;4983098;28;20045;-79
2022/08/05 00:04:49;;;;;;;1.98;1.00;;;19.10;99.90;;;;;;4981906;28;20057;-79
2022/08/05 00:07:15;;;;;;;3.65;1.25;;;19.10;99.90;;;;;;4997831;28;20103;-79
2022/08/05 00:09:41;;;;;;;3.75;1.27;;;19.10;99.90;;;;;;4971820;28;20056;-79
2022/08/05 00:12:07;;;;;;;3.13;1.30;;;19.10;99.90;;;;;;4981180;28;20042;-79
2022/08/05 00:14:33;;;;;;;4.22;1.45;;;19.10;99.90;;;;;;4982981;28;20049;-79
2022/08/05 00:16:59;;;;;;;4.53;1.65;;;19.00;99.90;;;;;;4999221;28;20045;-79
2022/08/05 00:19:25;;;;;;;3.22;1.10;;;19.00;99.90;;;;;;4970246;28;20066;-79
2022/08/05 00:21:51;;;;;;;3.00;1.08;;;19.00;99.90;;;;;;4999191;28;20187;-79
2022/08/05 00:24:17;;;;;;;2.13;1.00;;;19.00;99.90;;;;;;4981829;28;20530;-79
2022/08/05 00:26:42;;;;;;;3.22;1.20;;;19.00;99.90;;;;;;4979800;28;20046;-79
2022/08/05 00:29:08;;;;;;;3.58;1.02;;;19.10;99.90;;;;;;4981124;28;20041;-79
2022/08/05 00:31:34;;;;;;;2.55;1.17;;;19.00;99.90;;;;;;4982675;28;20080;-79
2022/08/05 00:34:00;;;;;;;3.28;1.13;;;19.00;99.90;;;;;;4992963;28;20049;-80
2022/08/05 00:36:26;;;;;;;2.88;1.17;;;19.00;99.90;;;;;;4995440;28;20487;-79
2022/08/05 00:38:51;;;;;;;3.50;1.20;;;19.00;99.90;;;;;;4971033;28;20099;-79
2022/08/05 00:41:29;;;;;;;2.65;1.02;;;19.00;99.90;;;;;;4980977;28;20099;-79
2022/08/05 00:43:55;;;;;;;2.78;1.20;;;19.00;99.90;;;;;;4995447;28;20071;-79
2022/08/05 00:46:22;;;;;;;2.53;1.08;;;19.00;99.90;;;;;;5002523;28;20133;-79
2022/08/05 00:48:49;;;;;;;3.53;1.08;;;19.00;99.90;;;;;;4996770;28;20183;-79
2022/08/05 00:51:15;;;;;;;2.50;1.10;;;19.00;99.90;;;;;;4986497;28;20054;-79
2022/08/05 00:53:40;;;;;;;2.25;1.10;;;18.90;99.90;;;;;;4969748;28;20507;-79
2022/08/05 00:56:06;;;;;;;4.43;1.20;;;19.00;99.90;;;;;;4996777;28;20050;-78
2022/08/05 00:58:32;;;;;;;2.78;1.20;;;19.00;99.90;;;;;;4950820;28;20072;-79
2022/08/05 01:00:58;;;;;;;4.20;1.40;;;18.90;99.90;;;;;;4981297;28;20049;-79
2022/08/05 01:03:24;;;;;;;3.92;0.90;;;18.90;99.90;;;;;;4979361;28;20578;-79
2022/08/05 01:05:51;;;;;;;2.90;1.05;;;18.90;99.90;;;;;;4987339;28;20388;-79
2022/08/05 01:08:18;;;;;;;4.10;1.30;;;18.90;99.90;;;;;;4981146;28;20124;-79
2022/08/05 01:10:58;;;;;;;4.13;1.33;;;18.90;99.90;;;;;;4965943;28;20046;-79
2022/08/05 01:13:35;;;;;;;2.28;1.00;;;18.90;99.90;;;;;;4999048;28;20061;-80
2022/08/05 01:16:06;;;;;;;3.67;1.20;;;18.90;99.90;;;;;;4995382;28;20061;-79
2022/08/05 01:18:39;;;;;;;3.80;1.27;;;18.90;99.90;;;;;;4997830;28;20053;-79
2022/08/05 01:22:03;;;;;;;2.70;1.00;;;18.90;99.90;;;;;;4998624;28;20553;-79
2022/08/05 01:24:57;;;;;;;2.00;1.10;;;18.90;99.90;;;;;;4902952;28;20078;-79
2022/08/05 01:28:01;;;;;;;4.53;1.35;;;18.90;99.90;;;;;;4918941;28;20094;-79
2022/08/05 01:30:30;;;;;;;3.17;1.20;;;18.90;99.90;;;;;;4978595;28;20068;-78
2022/08/05 01:32:57;;;;;;;3.05;1.13;;;18.90;99.90;;;;;;4994993;28;20487;-78
2022/08/05 01:35:27;;;;;;;2.78;1.08;;;18.90;99.90;;;;;;4996095;28;20054;-79
2022/08/05 01:37:55;;;;;;;2.05;1.10;;;18.90;99.90;;;;;;4996664;28;20053;-79
2022/08/05 01:40:25;;;;;;;3.03;1.45;;;18.90;99.90;;;;;;4988112;28;20052;-79
2022/08/05 01:42:53;;;;;;;4.25;1.75;;;18.90;99.90;;;;;;5002719;28;20056;-79
2022/08/05 01:45:20;;;;;;;6.05;1.42;;;18.80;99.90;;;;;;4998924;28;20547;-79
2022/08/05 01:47:48;;;;;;;3.60;1.48;;;18.90;99.90;;;;;;4991951;28;20081;-78
2022/08/05 01:50:21;;;;;;;5.60;1.40;;;18.80;99.90;;;;;;4983135;28;20140;-79
2022/08/05 01:52:48;;;;;;;4.13;1.20;;;18.80;99.90;;;;;;4985746;28;20045;-79
2022/08/05 01:55:16;;;;;;;4.85;1.45;;;18.80;99.90;;;;;;4971954;28;20113;-79
2022/08/05 01:57:45;;;;;;;3.47;1.20;;;18.80;99.90;;;;;;5001122;28;20422;-80
2022/08/05 02:00:12;;;;;;;3.60;1.50;;;18.80;99.90;;;;;;4984688;28;20034;-79
2022/08/05 02:02:49;;;;;;;3.08;1.23;;;18.70;99.90;;;;;;4998179;28;20056;-79
2022/08/05 02:05:16;;;;;;;2.35;1.25;;;18.70;99.90;;;;;;4999939;28;20060;-79
2022/08/05 02:07:42;;;;;;;4.10;1.40;;;18.70;99.90;;;;;;4984963;28;20049;-79
2022/08/05 02:10:08;;;;;;;2.72;1.48;;;18.60;99.90;;;;;;4986278;28;20044;-79
2022/08/05 02:12:52;;;;;;;3.00;1.08;;;18.60;99.90;;;;;;4985351;28;20102;-79
2022/08/05 02:15:26;;;;;;;4.60;1.10;;;18.50;99.90;;;;;;4997858;28;20087;-78
2022/08/05 02:18:06;;;;;;;2.75;1.10;;;18.50;99.90;;;;;;4999417;28;20092;-79
2022/08/05 02:20:56;;;;;;;2.50;1.27;;;18.50;99.90;;;;;;5000959;28;20065;-79
2022/08/05 02:23:29;;;;;;;1.98;0.90;;;18.50;99.90;;;;;;4990490;28;20057;-79
2022/08/05 02:25:57;;;;;;;3.55;1.20;;;18.40;99.90;;;;;;4998366;28;20049;-79
2022/08/05 02:28:25;;;;;;;2.97;0.95;;;18.40;99.90;;;;;;4982613;28;20053;-79
2022/08/05 02:30:57;;;;;;;2.67;1.05;;;18.30;99.90;;;;;;4985493;28;20041;-78
2022/08/05 02:33:24;;;;;;;3.38;1.10;;;18.30;99.90;;;;;;5001164;28;20053;-79
2022/08/05 02:35:52;;;;;;;2.67;1.30;;;18.30;99.90;;;;;;4984553;28;20483;-79
2022/08/05 02:38:19;;;;;;;4.53;1.05;;;18.30;99.90;;;;;;4984675;28;20057;-78
2022/08/05 02:40:45;;;;;;;1.80;1.10;;;18.30;99.90;;;;;;4984676;28;20054;-79
2022/08/05 02:43:12;;;;;;;2.65;0.95;;;18.30;99.90;;;;;;5000699;28;20052;-78
2022/08/05 02:45:40;;;;;;;3.03;1.35;;;18.30;99.90;;;;;;5004757;28;20057;-79
2022/08/05 02:48:07;;;;;;;3.10;1.20;;;18.30;99.90;;;;;;4997888;28;20049;-79
2022/08/05 02:50:35;;;;;;;3.00;1.13;;;18.40;99.90;;;;;;4980348;28;20096;-79
2022/08/05 02:53:02;;;;;;;3.17;1.10;;;18.40;99.90;;;;;;4981828;28;20049;-79
2022/08/05 02:55:30;;;;;;;3.72;1.23;;;18.40;99.90;;;;;;4971850;28;20129;-79
2022/08/05 02:57:58;;;;;;;2.70;1.25;;;18.40;99.90;;;;;;4999751;28;20067;-79
2022/08/05 03:00:24;;;;;;;2.67;1.50;;;18.50;99.90;;;;;;4999548;28;20058;-79
2022/08/05 03:02:51;;;;;;;3.25;2.10;;;18.50;99.90;;;;;;5000698;28;20099;-79
2022/08/05 03:05:18;;;;;;;3.10;1.58;;;18.50;99.90;;;;;;4981602;28;20053;-79
2022/08/05 03:07:44;;;;;;;3.33;1.90;;;18.50;99.90;;;;;;4983601;28;20103;-79
2022/08/05 03:10:13;;;;;;;3.50;2.03;;;18.50;99.90;;;;;;5003113;28;20077;-79
2022/08/05 03:12:39;;;;;;;3.63;2.20;;;18.40;99.90;;;;;;4999480;28;20049;-80
2022/08/05 03:15:08;;;;;;;3.05;2.17;;;18.40;99.90;;;;;;4957127;28;20136;-79
2022/08/05 03:17:34;;;;;;;4.20;2.55;;;18.40;99.90;;;;;;4989436;28;20508;-79
2022/08/05 03:20:00;;;;;;;4.35;2.10;;;18.40;99.90;;;;;;4987468;28;20456;-79
2022/08/05 03:22:26;;;;;;;5.75;2.10;;;18.30;99.90;;;;;;4982913;28;20048;-79
2022/08/05 03:24:52;;;;;;;3.22;2.15;;;18.20;99.90;;;;;;4983488;28;20047;-79
2022/08/05 03:27:19;;;;;;;5.43;2.33;;;18.20;99.90;;;;;;4983861;28;20590;-79
2022/08/05 03:29:45;;;;;;;3.90;1.95;;;18.20;99.90;;;;;;4986024;28;20042;-78
2022/08/05 03:32:12;;;;;;;2.88;1.83;;;18.10;99.90;;;;;;4998190;28;20053;-79
2022/08/05 03:34:38;;;;;;;3.08;1.80;;;18.10;99.90;;;;;;4996564;28;20038;-79
2022/08/05 03:37:05;;;;;;;4.63;2.22;;;18.10;99.90;;;;;;4997179;28;20060;-78
2022/08/05 03:39:30;;;;;;;3.33;2.22;;;18.10;99.90;;;;;;4982542;28;20293;-79
2022/08/05 03:41:56;;;;;;;3.55;1.83;;;18.10;99.90;;;;;;4985160;28;20483;-79
2022/08/05 03:44:23;;;;;;;3.95;2.10;;;18.00;99.90;;;;;;4996392;28;20080;-79
2022/08/05 03:46:49;;;;;;;3.35;1.95;;;18.00;99.90;;;;;;4998372;28;20507;-78
2022/08/05 03:49:14;;;;;;;2.60;1.70;;;18.00;99.90;;;;;;4983321;28;20054;-79
2022/08/05 03:51:54;;;;;;;2.97;1.60;;;18.00;99.90;;;;;;4998275;28;20116;-79
2022/08/05 03:54:29;;;;;;;2.85;1.50;;;17.90;99.90;;;;;;4986966;28;20049;-78
2022/08/05 03:56:56;;;;;;;3.45;1.40;;;17.90;99.90;;;;;;4988903;28;20085;-78
2022/08/05 03:59:34;;;;;;;2.10;1.33;;;17.90;99.90;;;;;;4970198;28;20041;-79
2022/08/05 04:02:01;;;;;;;2.55;1.20;;;17.90;99.90;;;;;;4989327;28;20057;-78
2022/08/05 04:04:29;;;;;;;4.30;1.10;;;17.90;99.90;;;;;;4993853;28;20160;-78
2022/08/05 04:06:56;;;;;;;3.25;1.00;;;17.90;99.90;;;;;;4987515;28;20056;-79
2022/08/05 04:09:23;;;;;;;2.85;1.20;;;17.90;99.90;;;;;;4997069;28;20038;-78
2022/08/05 04:11:49;;;;;;;5.40;1.20;;;17.90;99.90;;;;;;4974454;28;20056;-79
2022/08/05 04:14:16;;;;;;;2.22;0.90;;;17.90;99.90;;;;;;5001810;28;20042;-79
2022/08/05 04:16:43;;;;;;;3.03;1.20;;;17.90;99.90;;;;;;4982759;28;20084;-79
2022/08/05 04:19:12;;;;;;;2.45;1.35;;;17.90;99.90;;;;;;4982949;28;20046;-79
2022/08/05 04:21:38;;;;;;;2.78;1.50;;;17.90;99.90;;;;;;4972186;28;20103;-80
2022/08/05 04:24:04;;;;;;;4.70;1.70;;;17.90;99.90;;;;;;4986183;28;20049;-79
2022/08/05 04:26:30;;;;;;;3.35;1.70;;;17.90;99.90;;;;;;4966372;28;20767;-79
2022/08/05 04:28:56;;;;;;;2.47;1.50;;;17.90;99.90;;;;;;4968008;28;20046;-79
2022/08/05 04:31:21;;;;;;;2.72;1.40;;;17.90;99.90;;;;;;4971049;28;20045;-79
2022/08/05 04:33:48;;;;;;;2.83;1.10;;;17.90;99.90;;;;;;4965518;28;20053;-79
2022/08/05 04:36:14;;;;;;;2.50;1.00;;;17.90;99.90;;;;;;4980279;28;20044;-79
2022/08/05 04:38:44;;;;;;;1.90;0.95;;;18.00;99.90;;;;;;4995142;28;20049;-79
2022/08/05 04:41:09;;;;;;;2.20;0.90;;;18.00;99.90;;;;;;5014557;28;20053;-80
2022/08/05 04:43:36;;;;;;;3.22;1.00;;;18.00;99.90;;;;;;4984751;28;20060;-79
2022/08/05 04:46:03;;;;;;;3.40;0.90;;;18.00;99.90;;;;;;4983078;28;20096;-79
2022/08/05 04:48:29;;;;;;;1.25;0.90;;;18.00;99.90;;;;;;4980800;28;20061;-79
2022/08/05 04:50:55;;;;;;;1.35;0.85;;;18.00;99.90;;;;;;4964166;28;20038;-80
2022/08/05 04:53:21;;;;;;;2.80;1.10;;;18.00;99.90;;;;;;5013847;28;20099;-79
2022/08/05 04:55:46;;;;;;;3.17;0.80;;;17.90;99.90;;;;;;4970838;28;20062;-79
2022/08/05 04:58:15;;;;;;;2.00;0.75;;;17.90;99.90;;;;;;4999383;28;20046;-79
2022/08/05 05:00:41;;;;;;;2.72;1.00;;;17.90;99.90;;;;;;4998118;28;20076;-80
2022/08/05 05:03:08;;;;;;;2.85;1.10;;;17.90;99.90;;;;;;4988546;28;20495;-80
2022/08/05 05:05:34;;;;;;;1.50;0.85;;;17.90;99.90;;;;;;4971876;28;20453;-79
2022/08/05 05:08:04;;;;;;;1.98;0.90;;;17.90;99.90;;;;;;4997783;28;20124;-79
2022/08/05 05:10:31;;;;;;;1.95;0.80;;;17.80;99.90;;;;;;4997450;28;20461;-80
2022/08/05 05:12:57;;;;;;;2.35;1.00;;;17.80;99.90;;;;;;4981719;28;20049;-80
2022/08/05 05:15:24;;;;;;;5.35;1.65;;;17.80;99.90;;;;;;4995128;28;20041;-80
2022/08/05 05:17:50;;;;;;;2.67;0.95;;;17.80;99.90;;;;;;4997372;28;20463;-80
2022/08/05 05:20:15;;;;;;;2.45;1.00;;;17.80;99.90;;;;;;4982164;28;20127;-80
2022/08/05 05:22:41;;;;;;;2.67;1.30;;;17.80;99.90;;;;;;4995433;28;20049;-80
2022/08/05 05:25:08;;;;;;;3.08;1.15;;;17.80;99.90;;;;;;4971647;28;20050;-81
2022/08/05 05:27:35;;;;;;;3.28;1.23;;;17.80;99.90;;;;;;4969448;28;20057;-81
2022/08/05 05:30:01;;;;;;;5.13;1.48;;;17.80;99.90;;;;;;4982921;28;20404;-81
2022/08/05 05:32:27;;;;;;;1.45;0.90;;;17.80;99.90;;;;;;4969808;28;20049;-81
2022/08/05 05:34:52;;;;;;;4.22;0.90;;;17.80;99.90;;;;;;4967060;28;20050;-82
2022/08/05 05:37:18;;;;;;;3.03;0.80;;;17.80;99.90;;;;;;4989357;28;20049;-84
2022/08/05 05:39:44;;;;;;;1.08;0.80;;;17.80;99.90;;;;;;4966047;28;20049;-83
2022/08/05 05:42:09;;;;;;;1.33;0.90;;;17.90;99.90;;;;;;4966860;28;20048;-83
2022/08/05 05:44:35;;;;;;;0.88;0.47;;;17.90;99.90;;;;;;4980585;28;20175;-83
2022/08/05 05:47:01;;;;;;;1.65;0.80;;;18.00;99.90;;;;;;4971315;28;20127;-83
2022/08/05 05:49:27;;;;;;;2.30;0.90;;;18.00;99.90;;;;;;4979279;28;20545;-83
2022/08/05 05:51:54;;;;;;;2.78;0.70;;;18.00;99.90;;;;;;4982400;28;20053;-82
2022/08/05 05:54:23;;;;;;;2.75;0.85;;;18.10;99.90;;;;;;4998715;28;20046;-84
2022/08/05 05:56:48;;;;;;;2.60;0.98;;;18.20;99.90;;;;;;4982734;28;20056;-81
2022/08/05 05:59:14;;;;;;;2.85;1.05;;;18.20;99.90;;;;;;4967025;28;20049;-81
2022/08/05 06:01:41;;;;;;;3.53;1.05;;;18.20;99.90;;;;;;4997888;28;20141;-81
2022/08/05 06:04:11;;;;;;;1.88;1.08;;;18.30;99.90;;;;;;4971277;28;20053;-83
2022/08/05 06:06:39;;;;;;;3.58;0.93;;;18.30;99.90;;;;;;4997885;28;20140;-81
2022/08/05 06:09:05;;;;;;;2.53;1.08;;;18.30;99.90;;;;;;4984456;28;20115;-80
2022/08/05 06:11:34;;;;;;;2.35;0.90;;;18.40;99.90;;;;;;4996668;28;20046;-81
2022/08/05 06:14:00;;;;;;;4.05;1.10;;;18.50;99.90;;;;;;4964302;28;20053;-81
2022/08/05 06:16:27;;;;;;;2.05;0.82;;;18.50;99.90;;;;;;4972620;28;20050;-81
2022/08/05 06:18:52;;;;;;;2.40;1.10;;;18.70;99.90;;;;;;4996896;28;20050;-81
2022/08/05 06:21:18;;;;;;;2.95;0.90;;;18.70;99.90;;;;;;4984989;28;20046;-82
2022/08/05 06:23:44;;;;;;;3.08;0.90;;;18.80;99.90;;;;;;4965367;28;20049;-80
2022/08/05 06:26:10;;;;;;;3.05;0.80;;;18.80;99.90;;;;;;4981094;28;20048;-79
2022/08/05 06:28:36;;;;;;;4.68;1.13;;;18.80;99.90;;;;;;5011924;28;20046;-79
2022/08/05 06:31:02;;;;;;;3.38;1.17;;;18.80;99.90;;;;;;4977026;28;20365;-81
2022/08/05 06:33:28;;;;;;;3.88;1.13;;;18.80;99.90;;;;;;4977141;28;20045;-81
2022/08/05 06:35:53;;;;;;;1.88;0.88;;;18.90;99.90;;;;;;5000907;28;20096;-81
2022/08/05 06:38:19;;;;;;;3.67;1.05;;;18.90;99.90;;;;;;5006152;28;20494;-84
2022/08/05 06:40:45;;;;;;;4.70;1.13;;;18.90;99.90;;;;;;4981472;28;20033;-80
2022/08/05 06:43:12;;;;;;;2.35;0.70;;;18.80;99.90;;;;;;4976121;28;20128;-81
2022/08/05 06:45:37;;;;;;;2.70;0.88;;;18.90;99.90;;;;;;4972477;28;22428;-81
2022/08/05 06:48:03;;;;;;;2.67;0.80;;;19.00;99.90;;;;;;4969889;28;20059;-81
2022/08/05 06:50:29;;;;;;;3.70;0.85;;;19.10;99.90;;;;;;4984207;28;20045;-82
2022/08/05 06:52:55;;;;;;;1.52;0.60;;;19.20;99.90;;;;;;5000380;28;20045;-81
2022/08/05 06:55:21;;;;;;;3.45;0.90;;;19.30;99.90;;;;;;4965532;28;20045;-81
2022/08/05 06:57:46;;;;;;;1.98;0.80;;;19.40;99.90;;;;;;4984438;28;20080;-83
2022/08/05 07:00:12;;;;;;;2.10;0.70;;;19.50;99.90;;;;;;4991215;28;20049;-79
2022/08/05 07:02:45;;;;;;;2.65;0.95;;;19.60;99.90;;;;;;4984482;28;20085;-81
2022/08/05 07:05:12;;;;;;;1.77;0.57;;;18.60;99.90;;;;;;4999523;28;20042;-81
2022/08/05 07:07:39;;;;;;;4.25;0.80;;;19.70;99.90;;;;;;4983214;28;20053;-79
2022/08/05 07:10:08;;;;;;;2.50;0.70;;;19.90;99.90;;;;;;4983472;28;20129;-80
2022/08/05 07:18:03;;;;;;;3.45;0.80;;;20.10;99.90;;;;;;5000311;28;20058;-80
2022/08/05 07:20:29;;;;;;;2.30;0.63;;;20.30;99.90;;;;;;4987014;28;20046;-82
2022/08/05 07:22:55;;;;;;;5.45;0.80;;;20.30;99.90;;;;;;4967462;28;20049;-80
2022/08/05 07:25:21;;;;;;;3.10;1.00;;;20.40;99.90;;;;;;4981883;28;20775;-81
2022/08/05 07:27:52;;;;;;;2.15;0.70;;;20.50;99.90;;;;;;4987935;28;20083;-78
2022/08/05 07:30:18;;;;;;;3.25;0.65;;;20.60;99.90;;;;;;4989279;28;20080;-79
2022/08/05 07:32:43;;;;;;;3.17;0.60;;;20.70;99.90;;;;;;4981157;28;20083;-83
2022/08/05 07:35:11;;;;;;;2.47;0.57;;;20.70;99.90;;;;;;4973062;28;20045;-81
2022/08/05 07:37:37;;;;;;;1.58;0.60;;;20.50;99.90;;;;;;4997795;28;20046;-79
2022/08/05 07:40:04;;;;;;;1.58;0.60;;;20.50;99.90;;;;;;5004289;28;20080;-80
2022/08/05 07:42:30;;;;;;;3.25;0.60;;;20.50;99.90;;;;;;4988210;28;20067;-80
2022/08/05 07:44:55;;;;;;;1.38;0.60;;;20.40;99.90;;;;;;4980384;28;20045;-79
2022/08/05 07:47:21;;;;;;;1.70;0.60;;;20.60;99.90;;;;;;4957190;28;20100;-78
2022/08/05 07:49:47;;;;;;;1.77;0.52;;;20.60;99.90;;;;;;4973259;28;20038;-80
2022/08/05 07:52:13;;;;;;;1.05;0.60;;;20.80;99.90;;;;;;4966473;28;20343;-79
2022/08/05 07:54:39;;;;;;;1.85;0.47;;;20.90;99.90;;;;;;4980106;28;20050;-78
2022/08/05 07:57:04;;;;;;;1.60;0.60;;;21.00;99.90;;;;;;4968142;28;20483;-78
2022/08/05 07:59:30;;;;;;;2.22;0.73;;;21.20;99.90;;;;;;4957859;28;20376;-84
2022/08/05 08:01:56;;;;;;;3.17;0.73;;;21.20;99.90;;;;;;4976335;28;20108;-82
2022/08/05 08:04:21;;;;;;;2.45;0.60;;;21.40;99.90;;;;;;4971429;28;20088;-80
2022/08/05 08:06:47;;;;;;;4.88;0.60;;;21.60;99.90;;;;;;4978985;28;20060;-80
2022/08/05 08:09:13;;;;;;;1.58;0.60;;;21.70;99.90;;;;;;4973260;28;20050;-80
2022/08/05 08:11:38;;;;;;;3.60;0.80;;;21.90;99.90;;;;;;4978333;28;20404;-79
2022/08/05 08:14:04;;;;;;;3.28;0.90;;;22.00;99.90;;;;;;4971773;28;20088;-80
2022/08/05 08:16:30;;;;;;;1.58;0.50;;;22.20;99.90;;;;;;4977629;28;20046;-80
2022/08/05 08:18:55;;;;;;;1.27;0.40;;;22.20;99.90;;;;;;4970797;28;20704;-80
2022/08/05 08:21:21;;;;;;;1.92;0.52;;;22.30;99.90;;;;;;4986119;28;20127;-81
2022/08/05 08:23:47;;;;;;;2.20;0.77;;;22.30;99.90;;;;;;4993652;28;20425;-80
2022/08/05 08:26:13;;;;;;;0.90;0.38;;;22.40;99.90;;;;;;4978180;28;20056;-80
2022/08/05 08:28:38;;;;;;;2.05;0.60;;;22.50;99.90;;;;;;5001182;28;20077;-81
2022/08/05 08:31:08;;;;;;;0.88;0.50;;;22.60;99.90;;;;;;4993076;28;20144;-80
2022/08/05 08:33:34;;;;;;;0.82;0.35;;;22.80;99.90;;;;;;4991030;28;20540;-81
2022/08/05 08:36:00;;;;;;;1.10;0.40;;;22.70;99.40;;;;;;4992687;28;20112;-81
2022/08/05 08:38:26;;;;;;;1.73;0.60;;;22.80;99.10;;;;;;4979719;28;20511;-80
2022/08/05 08:40:52;;;;;;;1.02;0.40;;;23.00;99.20;;;;;;4970213;28;20781;-81
2022/08/05 08:43:18;;;;;;;1.35;0.40;;;23.10;99.20;;;;;;4993822;28;20108;-80
2022/08/05 08:45:48;;;;;;;0.98;0.45;;;23.30;98.70;;;;;;4982380;28;20054;-81
2022/08/05 08:48:15;;;;;;;1.27;0.40;;;23.30;97.30;;;;;;4984810;28;20137;-80
2022/08/05 08:50:42;;;;;;;1.35;0.50;;;23.50;97.50;;;;;;4996396;28;20121;-81
2022/08/05 08:53:13;;;;;;;1.60;0.35;;;23.70;97.00;;;;;;4973977;28;20050;-81
2022/08/05 08:55:40;;;;;;;1.33;0.40;;;23.90;96.70;;;;;;4998457;28;20407;-80
2022/08/05 08:58:06;;;;;;;1.55;0.38;;;24.10;96.40;;;;;;4982724;28;20054;-79
2022/08/05 09:00:32;;;;;;;0.95;0.50;;;24.30;96.20;;;;;;4981445;28;20045;-81
2022/08/05 09:02:59;;;;;;;1.80;0.50;;;24.40;95.70;;;;;;4966892;28;20054;-80
2022/08/05 09:05:25;;;;;;;1.02;0.40;;;24.50;95.10;;;;;;4982137;28;20097;-81
2022/08/05 09:07:52;;;;;;;1.30;0.40;;;24.50;94.30;;;;;;4966688;28;20081;-81
2022/08/05 09:10:18;;;;;;;2.20;0.40;;;24.60;93.90;;;;;;4981259;28;20138;-81
2022/08/05 09:12:44;;;;;;;2.20;0.30;;;24.50;93.90;;;;;;4997084;28;20053;-82
2022/08/05 09:15:11;;;;;;;1.55;0.30;;;24.70;93.70;;;;;;4990775;28;20050;-81
2022/08/05 09:17:36;;;;;;;1.80;0.50;;;24.80;93.60;;;;;;4981837;28;20499;-82
2022/08/05 09:20:04;;;;;;;1.27;0.40;;;24.90;93.30;;;;;;4965367;28;20041;-82
2022/08/05 09:23:07;;;;;;;1.35;0.50;;;24.90;92.70;;;;;;4999999;28;20407;-81
2022/08/05 09:25:33;;;;;;;1.88;0.50;;;24.80;91.10;;;;;;4982203;28;20053;-81
2022/08/05 09:28:28;;;;;;;2.22;0.50;;;24.70;92.90;;;;;;4989436;28;20608;-80
2022/08/05 09:30:59;;;;;;;1.67;0.30;;;24.70;91.80;;;;;;4989790;28;20116;-81
2022/08/05 09:33:25;;;;;;;1.20;0.50;;;24.90;93.20;;;;;;4997128;28;20384;-81
2022/08/05 09:36:09;;;;;;;2.33;0.40;;;24.90;93.00;;;;;;4979462;28;20101;-81
2022/08/05 09:38:35;;;;;;;1.55;0.43;;;24.90;92.10;;;;;;4996356;28;20073;-83
2022/08/05 09:41:06;;;;;;;0.60;0.30;;;24.90;93.00;;;;;;4977423;28;20209;-82
2022/08/05 09:43:34;;;;;;;1.15;0.50;;;25.10;92.80;;;;;;4986619;28;20047;-81
2022/08/05 09:46:01;;;;;;;0.43;0.30;;;24.90;92.70;;;;;;4994398;28;20066;-82
2022/08/05 09:48:32;;;;;;;1.25;0.35;;;24.90;92.60;;;;;;4992505;28;20054;-82
2022/08/05 09:51:03;;;;;;;0.93;0.30;;;25.00;91.70;;;;;;4993236;28;20035;-80
2022/08/05 09:53:46;;;;;;;0.70;0.30;;;24.50;91.70;;;;;;4979603;28;20086;-81
2022/08/05 09:56:11;;;;;;;1.58;0.35;;;25.20;90.60;;;;;;4995120;28;20054;-81
2022/08/05 09:58:37;;;;;;;0.95;0.30;;;24.70;91.30;;;;;;4978563;28;20054;-81
2022/08/05 10:01:05;;;;;;;0.98;0.43;;;24.40;91.70;;;;;;4962513;28;20462;-82
2022/08/05 10:03:31;;;;;;;1.55;0.38;;;24.20;91.60;;;;;;4982253;28;20487;-80
2022/08/05 10:06:18;;;;;;;1.05;0.50;;;24.40;91.90;;;;;;4983924;28;20499;-80
2022/08/05 10:08:44;;;;;;;0.75;0.38;;;24.70;90.90;;;;;;4999798;28;20053;-81
2022/08/05 10:11:15;;;;;;;0.82;0.30;;;24.70;90.70;;;;;;4973579;28;20054;-80
2022/08/05 10:13:42;;;;;;;0.40;0.30;;;25.20;90.40;;;;;;5015965;28;20500;-82
2022/08/05 10:16:30;;;;;;;1.13;0.40;;;25.40;90.10;;;;;;4993369;28;20125;-81
2022/08/05 10:18:56;;;;;;;1.58;0.45;;;25.40;88.30;;;;;;4986055;28;20046;-81
2022/08/05 10:21:22;;;;;;;2.17;0.50;;;25.30;89.10;;;;;;4999824;28;20044;-81
2022/08/05 10:23:49;;;;;;;0.73;0.40;;;25.30;90.10;;;;;;4979028;28;20046;-82
2022/08/05 10:26:15;;;;;;;1.73;0.45;;;25.10;90.40;;;;;;4981697;28;20091;-82
2022/08/05 10:28:43;;;;;;;0.82;0.50;;;25.00;90.50;;;;;;4982323;28;20050;-83
2022/08/05 10:31:11;;;;;;;1.33;0.47;;;25.00;90.40;;;;;;4983029;28;20107;-84
2022/08/05 10:33:38;;;;;;;1.40;0.40;;;25.00;90.10;;;;;;4981945;28;20046;-81
2022/08/05 10:36:04;;;;;;;0.75;0.40;;;24.90;90.30;;;;;;4964216;28;20069;-82
2022/08/05 10:38:32;;;;;;;1.98;0.47;;;24.70;90.60;;;;;;4997632;28;20057;-83
2022/08/05 10:40:57;;;;;;;1.85;0.40;;;24.60;90.90;;;;;;4982042;28;20050;-80
2022/08/05 10:43:47;;;;;;;1.23;0.40;;;24.20;91.20;;;;;;4989532;28;20061;-80
2022/08/05 10:46:16;;;;;;;0.93;0.40;;;24.00;90.80;;;;;;4989658;28;20057;-80
2022/08/05 10:48:49;;;;;;;1.05;0.40;;;23.70;92.00;;;;;;4997164;28;20053;-82
2022/08/05 10:51:17;;;;;;;2.83;0.70;;;23.50;91.70;;;;;;4998851;28;20045;-80
2022/08/05 10:53:43;;;;;;;0.95;0.30;;;23.30;92.40;;;;;;4973145;28;20099;-81
2022/08/05 10:56:20;;;;;;;1.20;0.43;;;23.20;92.70;;;;;;4997765;28;20046;-80
2022/08/05 10:58:53;;;;;;;1.45;0.32;;;23.00;92.80;;;;;;4982433;28;20099;-79
2022/08/05 11:01:30;;;;;;;0.95;0.47;;;22.90;93.10;;;;;;4997003;28;20053;-80
2022/08/05 11:04:09;;;;;;;1.17;0.52;;;23.00;92.80;;;;;;4980643;28;20084;-80
2022/08/05 11:06:56;;;;;;;1.92;0.40;;;22.90;92.80;;;;;;4988615;28;20081;-80
2022/08/05 11:09:23;;;;;;;1.17;0.40;;;22.90;93.20;;;;;;4983091;28;20050;-79
2022/08/05 11:11:50;;;;;;;0.88;0.30;;;22.80;93.10;;;;;;4981901;28;20099;-79
2022/08/05 11:14:37;;;;;;;0.70;0.25;;;22.80;93.40;;;;;;4973618;28;20045;-79
2022/08/05 11:17:29;;;;;;;2.38;0.40;;;22.60;93.30;;;;;;4983786;28;20065;-78
2022/08/05 11:19:57;;;;;;;1.42;0.40;;;22.40;93.00;;;;;;4982199;28;20049;-79
2022/08/05 11:22:40;;;;;;;1.88;0.60;;;22.30;93.30;;;;;;4999222;28;20459;-80
2022/08/05 11:25:43;;;;;;;1.05;0.43;;;22.20;93.20;;;;;;4987825;28;20042;-80
2022/08/05 11:28:08;;;;;;;0.80;0.40;;;22.70;93.60;;;;;;4997700;28;20404;-79
2022/08/05 11:30:56;;;;;;;1.13;0.52;;;23.50;93.20;;;;;;4998601;28;20046;-79
2022/08/05 11:33:29;;;;;;;0.50;0.40;;;23.90;92.30;;;;;;4997101;28;20053;-80
2022/08/05 11:36:03;;;;;;;2.55;0.50;;;24.30;92.50;;;;;;4988144;28;20558;-80
2022/08/05 11:38:38;;;;;;;0.77;0.38;;;24.20;92.00;;;;;;4998647;28;20081;-82
2022/08/05 11:41:03;;;;;;;1.65;0.38;;;24.50;91.20;;;;;;4979305;28;20049;-79
2022/08/05 11:43:30;;;;;;;1.27;0.50;;;24.70;90.30;;;;;;4989131;28;20042;-79
2022/08/05 11:45:56;;;;;;;1.33;0.30;;;25.10;89.80;;;;;;4997110;28;20062;-79
2022/08/05 11:48:22;;;;;;;2.10;0.45;;;25.30;88.40;;;;;;4965660;28;20069;-79
2022/08/05 11:50:52;;;;;;;0.45;0.32;;;25.40;87.60;;;;;;4980326;28;20042;-83
2022/08/05 11:53:18;;;;;;;0.63;0.30;;;25.60;87.20;;;;;;4997927;28;20057;-80
2022/08/05 11:55:59;;;;;;;0.68;0.38;;;25.80;86.70;;;;;;4983294;28;20050;-80
2022/08/05 11:58:38;;;;;;;1.50;0.40;;;25.90;84.00;;;;;;4998054;28;20049;-81
2022/08/05 12:01:07;;;;;;;1.80;0.40;;;26.10;84.30;;;;;;4989684;28;20049;-81
2022/08/05 12:03:59;;;;;;;1.98;0.40;;;26.30;84.70;;;;;;4972851;28;20053;-81
2022/08/05 12:06:29;;;;;;;1.38;0.40;;;26.40;82.70;;;;;;4987780;28;20058;-79
2022/08/05 12:08:56;;;;;;;1.92;0.47;;;26.40;82.00;;;;;;4980915;28;20140;-79
2022/08/05 12:11:23;;;;;;;1.90;0.40;;;26.60;80.90;;;;;;4990172;28;20587;-80
2022/08/05 12:13:57;;;;;;;1.02;0.50;;;26.60;81.00;;;;;;4996354;28;20068;-82
2022/08/05 12:16:26;;;;;;;1.02;0.30;;;26.40;78.50;;;;;;4989967;28;20061;-79
2022/08/05 12:18:53;;;;;;;1.25;0.45;;;26.50;81.30;;;;;;4988634;28;20058;-80
2022/08/05 12:21:28;;;;;;;1.73;0.35;;;26.00;81.60;;;;;;4982955;28;20467;-79
2022/08/05 12:24:05;;;;;;;5.78;1.40;;;25.60;82.60;;;;;;4980072;28;20063;-80
2022/08/05 12:26:31;;;;;;;5.75;1.27;;;25.00;87.60;;;;;;4998575;28;20053;-80
2022/08/05 12:28:57;;;;;;;6.30;1.80;;;24.50;90.00;;;;;;4981469;28;20045;-80
2022/08/05 12:31:23;;;;;;;5.43;1.17;;;24.10;91.60;;;;;;4967194;28;20042;-80
2022/08/05 12:33:49;;;;;;;3.42;0.77;;;23.80;92.50;;;;;;4982515;28;20056;-80
2022/08/05 12:36:15;;;;;;;3.90;0.63;;;23.50;92.40;;;;;;4973933;28;20052;-79
2022/08/05 12:38:41;;;;;;;3.45;0.80;;;23.10;92.50;;;;;;4967136;28;20096;-80
2022/08/05 12:41:10;;;;;;;3.60;1.00;;;23.10;92.80;;;;;;4997416;28;20450;-79
2022/08/05 12:43:51;;;;;;;3.55;0.90;;;23.00;92.70;;;;;;4981319;28;20057;-79
2022/08/05 12:46:25;;;;;;;3.75;0.63;;;22.90;92.40;;;;;;4996672;28;20120;-79
2022/08/05 12:49:05;;;;;;;2.63;0.70;;;22.90;92.50;;;;;;4990085;28;20391;-80
2022/08/05 12:51:31;;;;;;;3.95;0.77;;;22.80;93.80;;;;;;4997271;28;20078;-80
2022/08/05 12:54:03;;;;;;;2.60;0.50;;;22.80;94.20;;;;;;4989481;28;20457;-80
2022/08/05 12:56:30;;;;;;;2.25;0.52;;;23.00;94.10;;;;;;4998327;28;20104;-80
2022/08/05 12:59:36;;;;;;;2.42;0.60;;;22.90;94.20;;;;;;4982067;28;20042;-80
2022/08/05 13:02:05;;;;;;;2.55;0.73;;;23.00;93.60;;;;;;4996418;28;20058;-80
2022/08/05 13:04:41;;;;;;;3.92;1.00;;;23.20;93.40;;;;;;4998878;28;20042;-80